sensor_id;sensor_type;location;lat;lon;timestamp;temperature;humidity
584;HTU21D;27024;54.068;12.116;2023-08-12T00:00:19;16.14;118.99
584;HTU21D;27024;54.068;12.116;2023-08-12T00:02:46;16.11;118.99
584;HTU21D;27024;54.068;12.116;2023-08-12T00:05:13;16.07;118.99
584;HTU21D;27024;54.068;12.116;2023-08-12T00:07:40;15.99;118.99
584;HTU21D;27024;54.068;12.116;2023-08-12T00:10:08;16.05;118.99
584;HTU21D;27024;54.068;12.116;2023-08-12T00:12:36;15.99;118.99
584;HTU21D;27024;54.068;12.116;2023-08-12T00:15:03;16.02;118.99
584;HTU21D;27024;54.068;12.116;2023-08-12T00:17:33;16.00;118.99
584;HTU21D;27024;54.068;12.116;2023-08-12T00:19:59;15.95;118.99
584;HTU21D;27024;54.068;12.116;2023-08-12T00:22:27;16.04;118.99
584;HTU21D;27024;54.068;12.116;2023-08-12T00:24:53;15.99;118.99
584;HTU21D;27024;54.068;12.116;2023-08-12T00:27:20;16.03;118.99
584;HTU21D;27024;54.068;12.116;2023-08-12T00:29:48;16.03;118.99
584;HTU21D;27024;54.068;12.116;2023-08-12T00:32:15;16.06;118.99
584;HTU21D;27024;54.068;12.116;2023-08-12T00:34:42;16.17;118.99
584;HTU21D;27024;54.068;12.116;2023-08-12T00:37:09;16.12;118.99
584;HTU21D;27024;54.068;12.116;2023-08-12T00:39:37;16.14;118.99
584;HTU21D;27024;54.068;12.116;2023-08-12T00:42:04;16.21;118.99
584;HTU21D;27024;54.068;12.116;2023-08-12T00:44:30;16.17;118.99
584;HTU21D;27024;54.068;12.116;2023-08-12T00:46:57;16.22;118.99
584;HTU21D;27024;54.068;12.116;2023-08-12T00:49:25;16.19;118.99
584;HTU21D;27024;54.068;12.116;2023-08-12T00:51:53;16.21;118.99
584;HTU21D;27024;54.068;12.116;2023-08-12T00:54:21;16.25;118.99
584;HTU21D;27024;54.068;12.116;2023-08-12T00:56:49;16.19;118.99
584;HTU21D;27024;54.068;12.116;2023-08-12T00:59:19;16.27;118.99
584;HTU21D;27024;54.068;12.116;2023-08-12T01:01:47;16.30;118.99
584;HTU21D;27024;54.068;12.116;2023-08-12T01:04:14;16.30;118.99
584;HTU21D;27024;54.068;12.116;2023-08-12T01:06:41;16.30;118.99
584;HTU21D;27024;54.068;12.116;2023-08-12T01:09:08;16.32;118.99
584;HTU21D;27024;54.068;12.116;2023-08-12T01:14:51;16.30;118.99
584;HTU21D;27024;54.068;12.116;2023-08-12T01:17:22;16.30;118.99
584;HTU21D;27024;54.068;12.116;2023-08-12T01:19:50;16.24;118.99
584;HTU21D;27024;54.068;12.116;2023-08-12T01:22:20;16.28;118.99
584;HTU21D;27024;54.068;12.116;2023-08-12T01:24:48;16.26;118.99
584;HTU21D;27024;54.068;12.116;2023-08-12T01:27:15;16.32;118.99
584;HTU21D;27024;54.068;12.116;2023-08-12T01:29:45;16.30;118.99
584;HTU21D;27024;54.068;12.116;2023-08-12T01:32:34;16.35;118.99
584;HTU21D;27024;54.068;12.116;2023-08-12T01:35:11;16.34;118.99
584;HTU21D;27024;54.068;12.116;2023-08-12T01:37:41;16.36;118.99
584;HTU21D;27024;54.068;12.116;2023-08-12T01:40:10;16.46;118.99
584;HTU21D;27024;54.068;12.116;2023-08-12T01:42:38;16.43;118.99
584;HTU21D;27024;54.068;12.116;2023-08-12T01:45:06;16.35;118.99
584;HTU21D;27024;54.068;12.116;2023-08-12T01:47:33;16.42;118.99
584;HTU21D;27024;54.068;12.116;2023-08-12T01:50:00;16.44;118.99
584;HTU21D;27024;54.068;12.116;2023-08-12T01:52:27;16.37;118.99
584;HTU21D;27024;54.068;12.116;2023-08-12T01:54:54;16.42;118.99
584;HTU21D;27024;54.068;12.116;2023-08-12T01:57:21;16.40;118.99
584;HTU21D;27024;54.068;12.116;2023-08-12T01:59:47;16.39;118.99
584;HTU21D;27024;54.068;12.116;2023-08-12T02:02:14;16.36;118.99
584;HTU21D;27024;54.068;12.116;2023-08-12T02:04:41;16.33;118.99
584;HTU21D;27024;54.068;12.116;2023-08-12T02:07:09;16.35;118.99
584;HTU21D;27024;54.068;12.116;2023-08-12T02:09:37;16.37;118.99
584;HTU21D;27024;54.068;12.116;2023-08-12T02:12:04;16.37;118.99
584;HTU21D;27024;54.068;12.116;2023-08-12T02:14:31;16.37;118.99
584;HTU21D;27024;54.068;12.116;2023-08-12T02:16:57;16.42;118.99
584;HTU21D;27024;54.068;12.116;2023-08-12T02:19:24;16.47;118.99
584;HTU21D;27024;54.068;12.116;2023-08-12T02:21:51;16.42;118.99
584;HTU21D;27024;54.068;12.116;2023-08-12T02:24:18;16.40;118.99
584;HTU21D;27024;54.068;12.116;2023-08-12T02:26:44;16.31;118.99
584;HTU21D;27024;54.068;12.116;2023-08-12T02:29:11;16.37;118.99
584;HTU21D;27024;54.068;12.116;2023-08-12T02:31:38;16.35;118.99
584;HTU21D;27024;54.068;12.116;2023-08-12T02:34:05;16.37;118.99
584;HTU21D;27024;54.068;12.116;2023-08-12T02:36:31;16.34;118.99
584;HTU21D;27024;54.068;12.116;2023-08-12T02:38:58;16.35;118.99
584;HTU21D;27024;54.068;12.116;2023-08-12T02:41:25;16.41;118.99
584;HTU21D;27024;54.068;12.116;2023-08-12T02:43:52;16.43;118.99
584;HTU21D;27024;54.068;12.116;2023-08-12T02:46:18;16.35;118.99
584;HTU21D;27024;54.068;12.116;2023-08-12T02:48:46;16.32;118.99
584;HTU21D;27024;54.068;12.116;2023-08-12T02:51:14;16.39;118.99
584;HTU21D;27024;54.068;12.116;2023-08-12T02:53:41;16.37;118.99
584;HTU21D;27024;54.068;12.116;2023-08-12T02:56:07;16.37;118.99
584;HTU21D;27024;54.068;12.116;2023-08-12T02:58:34;16.36;118.99
584;HTU21D;27024;54.068;12.116;2023-08-12T03:01:01;16.33;118.99
584;HTU21D;27024;54.068;12.116;2023-08-12T03:03:30;16.39;118.99
584;HTU21D;27024;54.068;12.116;2023-08-12T03:05:57;16.42;118.99
584;HTU21D;27024;54.068;12.116;2023-08-12T03:08:24;16.44;118.99
584;HTU21D;27024;54.068;12.116;2023-08-12T03:11:00;16.46;118.99
584;HTU21D;27024;54.068;12.116;2023-08-12T03:13:28;16.48;118.99
584;HTU21D;27024;54.068;12.116;2023-08-12T03:15:54;16.51;118.99
584;HTU21D;27024;54.068;12.116;2023-08-12T03:18:21;16.46;118.99
584;HTU21D;27024;54.068;12.116;2023-08-12T03:20:48;16.41;118.99
584;HTU21D;27024;54.068;12.116;2023-08-12T03:23:15;16.48;118.99
584;HTU21D;27024;54.068;12.116;2023-08-12T03:25:42;16.44;118.99
584;HTU21D;27024;54.068;12.116;2023-08-12T03:28:09;16.42;118.99
584;HTU21D;27024;54.068;12.116;2023-08-12T03:30:36;16.43;118.99
584;HTU21D;27024;54.068;12.116;2023-08-12T03:33:03;16.42;118.99
584;HTU21D;27024;54.068;12.116;2023-08-12T03:35:30;16.37;118.99
584;HTU21D;27024;54.068;12.116;2023-08-12T03:37:56;16.34;118.99
584;HTU21D;27024;54.068;12.116;2023-08-12T03:40:23;16.37;118.99
584;HTU21D;27024;54.068;12.116;2023-08-12T03:42:50;16.40;118.99
584;HTU21D;27024;54.068;12.116;2023-08-12T03:45:17;16.41;118.99
584;HTU21D;27024;54.068;12.116;2023-08-12T03:47:44;16.39;118.99
584;HTU21D;27024;54.068;12.116;2023-08-12T03:50:11;16.36;118.99
584;HTU21D;27024;54.068;12.116;2023-08-12T03:52:37;16.32;118.99
584;HTU21D;27024;54.068;12.116;2023-08-12T03:55:05;16.37;118.99
584;HTU21D;27024;54.068;12.116;2023-08-12T03:57:32;16.35;118.99
584;HTU21D;27024;54.068;12.116;2023-08-12T04:00:01;16.34;118.99
584;HTU21D;27024;54.068;12.116;2023-08-12T04:02:27;16.30;118.99
584;HTU21D;27024;54.068;12.116;2023-08-12T04:04:54;16.32;118.99
584;HTU21D;27024;54.068;12.116;2023-08-12T04:07:21;16.24;118.99
584;HTU21D;27024;54.068;12.116;2023-08-12T04:09:49;16.30;118.99
584;HTU21D;27024;54.068;12.116;2023-08-12T04:12:16;16.24;118.99
584;HTU21D;27024;54.068;12.116;2023-08-12T04:14:42;16.28;118.99
584;HTU21D;27024;54.068;12.116;2023-08-12T04:17:09;16.31;118.99
584;HTU21D;27024;54.068;12.116;2023-08-12T04:19:37;16.33;118.99
584;HTU21D;27024;54.068;12.116;2023-08-12T04:22:03;16.39;118.99
584;HTU21D;27024;54.068;12.116;2023-08-12T04:24:30;16.39;118.99
584;HTU21D;27024;54.068;12.116;2023-08-12T04:26:57;16.43;118.99
584;HTU21D;27024;54.068;12.116;2023-08-12T04:29:24;16.43;118.99
584;HTU21D;27024;54.068;12.116;2023-08-12T04:31:51;16.47;118.99
584;HTU21D;27024;54.068;12.116;2023-08-12T04:34:19;16.43;118.99
584;HTU21D;27024;54.068;12.116;2023-08-12T04:36:46;16.42;118.99
584;HTU21D;27024;54.068;12.116;2023-08-12T04:39:13;16.41;118.99
584;HTU21D;27024;54.068;12.116;2023-08-12T04:41:41;16.46;118.99
584;HTU21D;27024;54.068;12.116;2023-08-12T04:44:07;16.41;118.99
584;HTU21D;27024;54.068;12.116;2023-08-12T04:46:34;16.43;118.99
584;HTU21D;27024;54.068;12.116;2023-08-12T04:49:01;16.41;118.99
584;HTU21D;27024;54.068;12.116;2023-08-12T04:51:28;16.47;118.99
584;HTU21D;27024;54.068;12.116;2023-08-12T04:53:55;16.47;118.99
584;HTU21D;27024;54.068;12.116;2023-08-12T04:56:22;16.47;118.99
584;HTU21D;27024;54.068;12.116;2023-08-12T04:58:50;16.55;118.99
584;HTU21D;27024;54.068;12.116;2023-08-12T05:01:17;16.58;118.99
584;HTU21D;27024;54.068;12.116;2023-08-12T05:03:44;16.67;118.99
584;HTU21D;27024;54.068;12.116;2023-08-12T05:06:11;16.74;118.99
584;HTU21D;27024;54.068;12.116;2023-08-12T05:08:38;16.79;118.99
584;HTU21D;27024;54.068;12.116;2023-08-12T05:11:05;16.77;118.99
584;HTU21D;27024;54.068;12.116;2023-08-12T05:13:31;16.86;118.99
584;HTU21D;27024;54.068;12.116;2023-08-12T05:15:58;16.89;118.99
584;HTU21D;27024;54.068;12.116;2023-08-12T05:18:25;16.81;118.99
584;HTU21D;27024;54.068;12.116;2023-08-12T05:20:53;16.88;118.99
584;HTU21D;27024;54.068;12.116;2023-08-12T05:23:20;16.99;118.99
584;HTU21D;27024;54.068;12.116;2023-08-12T05:25:47;17.09;118.99
584;HTU21D;27024;54.068;12.116;2023-08-12T05:28:14;17.13;118.99
584;HTU21D;27024;54.068;12.116;2023-08-12T05:30:41;17.17;118.99
584;HTU21D;27024;54.068;12.116;2023-08-12T05:33:07;17.22;118.99
584;HTU21D;27024;54.068;12.116;2023-08-12T05:35:35;17.21;118.99
584;HTU21D;27024;54.068;12.116;2023-08-12T05:38:03;17.22;118.99
584;HTU21D;27024;54.068;12.116;2023-08-12T05:40:29;17.26;118.99
584;HTU21D;27024;54.068;12.116;2023-08-12T05:42:56;17.33;118.99
584;HTU21D;27024;54.068;12.116;2023-08-12T05:45:23;17.38;118.99
584;HTU21D;27024;54.068;12.116;2023-08-12T05:47:50;17.52;118.99
584;HTU21D;27024;54.068;12.116;2023-08-12T05:50:17;17.50;118.99
584;HTU21D;27024;54.068;12.116;2023-08-12T05:52:44;17.54;118.99
584;HTU21D;27024;54.068;12.116;2023-08-12T05:55:11;17.59;118.99
584;HTU21D;27024;54.068;12.116;2023-08-12T05:57:38;17.62;118.99
584;HTU21D;27024;54.068;12.116;2023-08-12T06:00:05;17.64;118.99
584;HTU21D;27024;54.068;12.116;2023-08-12T06:02:33;17.70;118.99
584;HTU21D;27024;54.068;12.116;2023-08-12T06:05:00;17.73;118.99
584;HTU21D;27024;54.068;12.116;2023-08-12T06:07:29;17.78;118.99
584;HTU21D;27024;54.068;12.116;2023-08-12T06:09:56;17.88;118.99
584;HTU21D;27024;54.068;12.116;2023-08-12T06:12:23;17.92;118.99
584;HTU21D;27024;54.068;12.116;2023-08-12T06:14:50;17.93;118.99
584;HTU21D;27024;54.068;12.116;2023-08-12T06:17:17;17.97;118.99
584;HTU21D;27024;54.068;12.116;2023-08-12T06:19:44;18.05;118.99
584;HTU21D;27024;54.068;12.116;2023-08-12T06:22:11;18.13;118.99
584;HTU21D;27024;54.068;12.116;2023-08-12T06:24:38;18.20;118.99
584;HTU21D;27024;54.068;12.116;2023-08-12T06:27:05;18.22;118.99
584;HTU21D;27024;54.068;12.116;2023-08-12T06:29:32;18.32;118.99
584;HTU21D;27024;54.068;12.116;2023-08-12T06:31:59;18.50;118.99
584;HTU21D;27024;54.068;12.116;2023-08-12T06:34:26;18.58;118.99
584;HTU21D;27024;54.068;12.116;2023-08-12T06:36:52;18.57;118.99
584;HTU21D;27024;54.068;12.116;2023-08-12T06:39:20;18.72;118.99
584;HTU21D;27024;54.068;12.116;2023-08-12T06:41:48;18.89;118.99
584;HTU21D;27024;54.068;12.116;2023-08-12T06:44:17;18.85;118.99
584;HTU21D;27024;54.068;12.116;2023-08-12T06:46:44;18.81;118.99
584;HTU21D;27024;54.068;12.116;2023-08-12T06:49:11;18.80;118.99
584;HTU21D;27024;54.068;12.116;2023-08-12T06:51:38;18.85;118.99
584;HTU21D;27024;54.068;12.116;2023-08-12T06:54:05;18.78;118.99
584;HTU21D;27024;54.068;12.116;2023-08-12T06:56:32;18.96;118.99
584;HTU21D;27024;54.068;12.116;2023-08-12T06:58:59;19.05;118.99
584;HTU21D;27024;54.068;12.116;2023-08-12T07:01:25;19.05;118.99
584;HTU21D;27024;54.068;12.116;2023-08-12T07:03:52;19.05;118.99
584;HTU21D;27024;54.068;12.116;2023-08-12T07:06:19;18.99;118.99
584;HTU21D;27024;54.068;12.116;2023-08-12T07:08:46;19.13;118.99
584;HTU21D;27024;54.068;12.116;2023-08-12T07:11:16;19.12;118.99
584;HTU21D;27024;54.068;12.116;2023-08-12T07:13:43;19.17;118.99
584;HTU21D;27024;54.068;12.116;2023-08-12T07:16:13;19.44;118.99
584;HTU21D;27024;54.068;12.116;2023-08-12T07:18:40;19.72;118.99
584;HTU21D;27024;54.068;12.116;2023-08-12T07:21:06;19.80;118.99
584;HTU21D;27024;54.068;12.116;2023-08-12T07:23:34;19.96;118.99
584;HTU21D;27024;54.068;12.116;2023-08-12T07:26:00;20.16;118.99
584;HTU21D;27024;54.068;12.116;2023-08-12T07:28:27;20.27;118.99
584;HTU21D;27024;54.068;12.116;2023-08-12T07:30:54;20.22;118.99
584;HTU21D;27024;54.068;12.116;2023-08-12T07:33:21;20.83;118.99
584;HTU21D;27024;54.068;12.116;2023-08-12T07:35:48;20.94;118.99
584;HTU21D;27024;54.068;12.116;2023-08-12T07:38:15;21.25;118.99
584;HTU21D;27024;54.068;12.116;2023-08-12T07:40:42;21.55;118.99
584;HTU21D;27024;54.068;12.116;2023-08-12T07:43:09;21.40;118.99
584;HTU21D;27024;54.068;12.116;2023-08-12T07:45:35;21.40;118.99
584;HTU21D;27024;54.068;12.116;2023-08-12T07:48:02;21.58;118.99
584;HTU21D;27024;54.068;12.116;2023-08-12T07:50:30;21.66;118.99
584;HTU21D;27024;54.068;12.116;2023-08-12T07:52:57;21.44;118.99
584;HTU21D;27024;54.068;12.116;2023-08-12T07:55:24;21.16;118.99
584;HTU21D;27024;54.068;12.116;2023-08-12T07:57:53;21.53;118.99
584;HTU21D;27024;54.068;12.116;2023-08-12T08:00:20;21.44;118.99
584;HTU21D;27024;54.068;12.116;2023-08-12T08:02:47;21.57;118.99
584;HTU21D;27024;54.068;12.116;2023-08-12T08:05:14;21.55;118.99
584;HTU21D;27024;54.068;12.116;2023-08-12T08:07:41;21.79;118.99
584;HTU21D;27024;54.068;12.116;2023-08-12T08:10:09;22.01;118.99
584;HTU21D;27024;54.068;12.116;2023-08-12T08:12:36;21.93;118.99
584;HTU21D;27024;54.068;12.116;2023-08-12T08:15:03;21.93;118.99
584;HTU21D;27024;54.068;12.116;2023-08-12T08:17:30;22.03;118.99
584;HTU21D;27024;54.068;12.116;2023-08-12T08:19:57;21.99;118.99
584;HTU21D;27024;54.068;12.116;2023-08-12T08:22:24;22.01;118.99
584;HTU21D;27024;54.068;12.116;2023-08-12T08:24:51;22.01;118.99
584;HTU21D;27024;54.068;12.116;2023-08-12T08:27:18;21.98;118.99
584;HTU21D;27024;54.068;12.116;2023-08-12T08:29:44;21.98;118.99
584;HTU21D;27024;54.068;12.116;2023-08-12T08:32:11;22.17;118.99
584;HTU21D;27024;54.068;12.116;2023-08-12T08:34:39;22.28;118.99
584;HTU21D;27024;54.068;12.116;2023-08-12T08:37:06;22.52;118.99
584;HTU21D;27024;54.068;12.116;2023-08-12T08:39:32;22.48;118.99
584;HTU21D;27024;54.068;12.116;2023-08-12T08:41:59;22.71;118.99
584;HTU21D;27024;54.068;12.116;2023-08-12T08:44:29;22.81;118.99
584;HTU21D;27024;54.068;12.116;2023-08-12T08:47:00;22.91;118.99
584;HTU21D;27024;54.068;12.116;2023-08-12T08:49:28;22.79;118.99
584;HTU21D;27024;54.068;12.116;2023-08-12T08:51:56;22.67;118.99
584;HTU21D;27024;54.068;12.116;2023-08-12T08:54:23;22.78;118.99
584;HTU21D;27024;54.068;12.116;2023-08-12T08:56:50;22.82;118.99
584;HTU21D;27024;54.068;12.116;2023-08-12T08:59:29;22.98;118.99
584;HTU21D;27024;54.068;12.116;2023-08-12T09:01:57;23.16;118.99
584;HTU21D;27024;54.068;12.116;2023-08-12T09:04:26;23.17;118.99
584;HTU21D;27024;54.068;12.116;2023-08-12T09:06:54;23.36;118.99
584;HTU21D;27024;54.068;12.116;2023-08-12T09:09:21;23.60;118.99
584;HTU21D;27024;54.068;12.116;2023-08-12T09:11:51;23.87;118.99
584;HTU21D;27024;54.068;12.116;2023-08-12T09:14:19;24.03;118.99
584;HTU21D;27024;54.068;12.116;2023-08-12T09:16:46;24.04;118.99
584;HTU21D;27024;54.068;12.116;2023-08-12T09:19:13;23.76;118.99
584;HTU21D;27024;54.068;12.116;2023-08-12T09:21:42;24.08;118.99
584;HTU21D;27024;54.068;12.116;2023-08-12T09:24:08;24.14;118.99
584;HTU21D;27024;54.068;12.116;2023-08-12T09:26:35;24.18;118.99
584;HTU21D;27024;54.068;12.116;2023-08-12T09:29:02;23.97;118.99
584;HTU21D;27024;54.068;12.116;2023-08-12T09:31:30;24.09;118.99
584;HTU21D;27024;54.068;12.116;2023-08-12T09:34:00;24.18;118.99
584;HTU21D;27024;54.068;12.116;2023-08-12T09:36:30;24.53;118.99
584;HTU21D;27024;54.068;12.116;2023-08-12T09:38:57;24.71;118.99
584;HTU21D;27024;54.068;12.116;2023-08-12T09:41:27;24.60;118.99
584;HTU21D;27024;54.068;12.116;2023-08-12T09:44:01;24.63;118.99
584;HTU21D;27024;54.068;12.116;2023-08-12T09:46:29;25.12;118.99
584;HTU21D;27024;54.068;12.116;2023-08-12T09:48:55;25.44;118.99
584;HTU21D;27024;54.068;12.116;2023-08-12T09:51:22;25.53;118.99
584;HTU21D;27024;54.068;12.116;2023-08-12T09:53:50;25.45;118.99
584;HTU21D;27024;54.068;12.116;2023-08-12T09:56:19;25.77;118.99
584;HTU21D;27024;54.068;12.116;2023-08-12T09:58:51;26.02;118.99
584;HTU21D;27024;54.068;12.116;2023-08-12T10:01:20;26.35;118.99
584;HTU21D;27024;54.068;12.116;2023-08-12T10:03:50;26.42;118.99
584;HTU21D;27024;54.068;12.116;2023-08-12T10:06:18;26.54;118.99
584;HTU21D;27024;54.068;12.116;2023-08-12T10:08:46;26.18;118.99
584;HTU21D;27024;54.068;12.116;2023-08-12T10:11:14;26.65;118.99
584;HTU21D;27024;54.068;12.116;2023-08-12T10:13:42;26.57;118.99
584;HTU21D;27024;54.068;12.116;2023-08-12T10:16:10;26.46;118.99
584;HTU21D;27024;54.068;12.116;2023-08-12T10:18:39;25.82;118.99
584;HTU21D;27024;54.068;12.116;2023-08-12T10:21:09;25.80;118.99
584;HTU21D;27024;54.068;12.116;2023-08-12T10:23:37;25.69;118.99
584;HTU21D;27024;54.068;12.116;2023-08-12T10:26:05;25.84;118.99
584;HTU21D;27024;54.068;12.116;2023-08-12T10:28:34;26.15;118.99
584;HTU21D;27024;54.068;12.116;2023-08-12T10:31:07;26.32;118.99
584;HTU21D;27024;54.068;12.116;2023-08-12T10:33:40;26.84;118.99
584;HTU21D;27024;54.068;12.116;2023-08-12T10:36:08;27.22;118.99
584;HTU21D;27024;54.068;12.116;2023-08-12T10:38:35;27.72;118.99
584;HTU21D;27024;54.068;12.116;2023-08-12T10:43:55;28.65;118.99
584;HTU21D;27024;54.068;12.116;2023-08-12T10:49:02;28.43;118.99
584;HTU21D;27024;54.068;12.116;2023-08-12T10:51:49;28.54;118.99
584;HTU21D;27024;54.068;12.116;2023-08-12T11:02:26;30.80;118.99
584;HTU21D;27024;54.068;12.116;2023-08-12T11:05:01;30.97;118.99
584;HTU21D;27024;54.068;12.116;2023-08-12T11:07:43;30.48;118.99
584;HTU21D;27024;54.068;12.116;2023-08-12T11:10:22;29.91;118.99
584;HTU21D;27024;54.068;12.116;2023-08-12T11:15:20;29.48;118.99
584;HTU21D;27024;54.068;12.116;2023-08-12T11:17:55;29.23;118.99
584;HTU21D;27024;54.068;12.116;2023-08-12T11:20:22;29.14;118.99
584;HTU21D;27024;54.068;12.116;2023-08-12T11:22:50;29.19;118.99
584;HTU21D;27024;54.068;12.116;2023-08-12T11:25:17;29.28;118.99
584;HTU21D;27024;54.068;12.116;2023-08-12T11:27:47;29.14;118.99
584;HTU21D;27024;54.068;12.116;2023-08-12T11:30:17;29.24;118.99
584;HTU21D;27024;54.068;12.116;2023-08-12T11:32:46;28.61;118.99
584;HTU21D;27024;54.068;12.116;2023-08-12T11:35:15;28.73;118.99
584;HTU21D;27024;54.068;12.116;2023-08-12T11:37:44;29.26;118.99
584;HTU21D;27024;54.068;12.116;2023-08-12T11:40:14;30.25;118.99
584;HTU21D;27024;54.068;12.116;2023-08-12T11:42:43;30.78;118.99
584;HTU21D;27024;54.068;12.116;2023-08-12T11:45:10;30.91;118.99
584;HTU21D;27024;54.068;12.116;2023-08-12T11:47:39;31.57;118.99
584;HTU21D;27024;54.068;12.116;2023-08-12T11:50:08;31.16;118.99
584;HTU21D;27024;54.068;12.116;2023-08-12T11:52:36;31.36;118.99
584;HTU21D;27024;54.068;12.116;2023-08-12T11:55:04;31.49;118.99
584;HTU21D;27024;54.068;12.116;2023-08-12T11:57:33;31.40;118.99
584;HTU21D;27024;54.068;12.116;2023-08-12T12:02:51;31.69;118.99
584;HTU21D;27024;54.068;12.116;2023-08-12T12:05:22;31.22;118.99
584;HTU21D;27024;54.068;12.116;2023-08-12T12:07:50;31.08;118.99
584;HTU21D;27024;54.068;12.116;2023-08-12T12:10:39;30.44;118.99
584;HTU21D;27024;54.068;12.116;2023-08-12T12:13:06;30.81;118.99
584;HTU21D;27024;54.068;12.116;2023-08-12T12:15:43;30.71;118.99
584;HTU21D;27024;54.068;12.116;2023-08-12T12:18:11;30.98;118.99
584;HTU21D;27024;54.068;12.116;2023-08-12T12:20:58;30.35;118.99
584;HTU21D;27024;54.068;12.116;2023-08-12T12:23:29;30.37;118.99
584;HTU21D;27024;54.068;12.116;2023-08-12T12:25:58;30.16;118.99
584;HTU21D;27024;54.068;12.116;2023-08-12T12:28:26;30.31;118.99
584;HTU21D;27024;54.068;12.116;2023-08-12T12:30:53;30.61;118.99
584;HTU21D;27024;54.068;12.116;2023-08-12T12:33:20;30.15;118.99
584;HTU21D;27024;54.068;12.116;2023-08-12T12:35:47;29.88;118.99
584;HTU21D;27024;54.068;12.116;2023-08-12T12:38:25;30.41;118.99
584;HTU21D;27024;54.068;12.116;2023-08-12T12:40:52;30.30;118.99
584;HTU21D;27024;54.068;12.116;2023-08-12T12:43:19;30.17;118.99
584;HTU21D;27024;54.068;12.116;2023-08-12T12:45:46;29.72;118.99
584;HTU21D;27024;54.068;12.116;2023-08-12T12:48:13;29.63;118.99
584;HTU21D;27024;54.068;12.116;2023-08-12T12:50:40;29.35;118.99
584;HTU21D;27024;54.068;12.116;2023-08-12T12:53:06;29.20;118.99
584;HTU21D;27024;54.068;12.116;2023-08-12T12:55:33;29.24;118.99
584;HTU21D;27024;54.068;12.116;2023-08-12T12:58:00;29.59;118.99
584;HTU21D;27024;54.068;12.116;2023-08-12T13:00:27;30.07;118.99
584;HTU21D;27024;54.068;12.116;2023-08-12T13:02:54;30.65;118.99
584;HTU21D;27024;54.068;12.116;2023-08-12T13:05:21;30.40;118.99
584;HTU21D;27024;54.068;12.116;2023-08-12T13:07:48;30.21;118.99
584;HTU21D;27024;54.068;12.116;2023-08-12T13:10:14;30.28;118.99
584;HTU21D;27024;54.068;12.116;2023-08-12T13:12:41;30.36;118.99
584;HTU21D;27024;54.068;12.116;2023-08-12T13:15:08;30.00;118.99
584;HTU21D;27024;54.068;12.116;2023-08-12T13:17:35;30.22;118.99
584;HTU21D;27024;54.068;12.116;2023-08-12T13:20:03;30.02;118.99
584;HTU21D;27024;54.068;12.116;2023-08-12T13:22:30;30.40;118.99
584;HTU21D;27024;54.068;12.116;2023-08-12T13:24:57;30.50;118.99
584;HTU21D;27024;54.068;12.116;2023-08-12T13:27:24;30.08;118.99
584;HTU21D;27024;54.068;12.116;2023-08-12T13:29:51;29.96;118.99
584;HTU21D;27024;54.068;12.116;2023-08-12T13:32:18;29.76;118.99
584;HTU21D;27024;54.068;12.116;2023-08-12T13:34:44;29.11;118.99
584;HTU21D;27024;54.068;12.116;2023-08-12T13:37:13;29.12;118.99
584;HTU21D;27024;54.068;12.116;2023-08-12T13:39:41;28.93;118.99
584;HTU21D;27024;54.068;12.116;2023-08-12T13:42:08;28.73;118.99
584;HTU21D;27024;54.068;12.116;2023-08-12T13:44:35;28.80;118.99
584;HTU21D;27024;54.068;12.116;2023-08-12T13:47:02;28.57;118.99
584;HTU21D;27024;54.068;12.116;2023-08-12T13:49:28;28.23;118.99
584;HTU21D;27024;54.068;12.116;2023-08-12T13:51:55;28.04;118.99
584;HTU21D;27024;54.068;12.116;2023-08-12T13:54:22;27.53;118.99
584;HTU21D;27024;54.068;12.116;2023-08-12T13:56:49;27.44;118.99
584;HTU21D;27024;54.068;12.116;2023-08-12T13:59:16;27.41;118.99
584;HTU21D;27024;54.068;12.116;2023-08-12T14:01:43;27.20;118.99
584;HTU21D;27024;54.068;12.116;2023-08-12T14:04:10;27.19;118.99
584;HTU21D;27024;54.068;12.116;2023-08-12T14:06:36;26.96;118.99
584;HTU21D;27024;54.068;12.116;2023-08-12T14:09:04;26.80;118.99
584;HTU21D;27024;54.068;12.116;2023-08-12T14:11:31;26.69;118.99
584;HTU21D;27024;54.068;12.116;2023-08-12T14:13:58;26.83;118.99
584;HTU21D;27024;54.068;12.116;2023-08-12T14:16:25;26.95;118.99
584;HTU21D;27024;54.068;12.116;2023-08-12T14:18:52;27.00;118.99
584;HTU21D;27024;54.068;12.116;2023-08-12T14:21:19;26.93;118.99
584;HTU21D;27024;54.068;12.116;2023-08-12T14:23:46;26.84;118.99
584;HTU21D;27024;54.068;12.116;2023-08-12T14:26:13;26.85;118.99
584;HTU21D;27024;54.068;12.116;2023-08-12T14:28:39;26.68;118.99
584;HTU21D;27024;54.068;12.116;2023-08-12T14:31:07;26.46;118.99
584;HTU21D;27024;54.068;12.116;2023-08-12T14:33:34;26.05;118.99
584;HTU21D;27024;54.068;12.116;2023-08-12T14:36:01;25.95;118.99
584;HTU21D;27024;54.068;12.116;2023-08-12T14:38:28;25.96;118.99
584;HTU21D;27024;54.068;12.116;2023-08-12T14:40:55;26.01;118.99
584;HTU21D;27024;54.068;12.116;2023-08-12T14:43:22;25.92;118.99
584;HTU21D;27024;54.068;12.116;2023-08-12T14:45:48;25.82;118.99
584;HTU21D;27024;54.068;12.116;2023-08-12T14:48:15;25.60;118.99
584;HTU21D;27024;54.068;12.116;2023-08-12T14:50:44;25.51;118.99
584;HTU21D;27024;54.068;12.116;2023-08-12T14:53:11;25.57;118.99
584;HTU21D;27024;54.068;12.116;2023-08-12T14:55:38;25.28;118.99
584;HTU21D;27024;54.068;12.116;2023-08-12T14:58:05;25.16;118.99
584;HTU21D;27024;54.068;12.116;2023-08-12T15:00:32;24.88;118.99
584;HTU21D;27024;54.068;12.116;2023-08-12T15:03:00;24.17;118.99
584;HTU21D;27024;54.068;12.116;2023-08-12T15:05:27;23.82;118.99
584;HTU21D;27024;54.068;12.116;2023-08-12T15:07:54;23.66;118.99
584;HTU21D;27024;54.068;12.116;2023-08-12T15:10:21;23.71;118.99
584;HTU21D;27024;54.068;12.116;2023-08-12T15:12:48;23.66;118.99
584;HTU21D;27024;54.068;12.116;2023-08-12T15:15:15;23.85;118.99
584;HTU21D;27024;54.068;12.116;2023-08-12T15:17:42;23.71;118.99
584;HTU21D;27024;54.068;12.116;2023-08-12T15:20:09;23.70;118.99
584;HTU21D;27024;54.068;12.116;2023-08-12T15:22:37;23.68;118.99
584;HTU21D;27024;54.068;12.116;2023-08-12T15:25:04;24.12;118.99
584;HTU21D;27024;54.068;12.116;2023-08-12T15:27:32;24.53;118.99
584;HTU21D;27024;54.068;12.116;2023-08-12T15:30:00;24.69;118.99
584;HTU21D;27024;54.068;12.116;2023-08-12T15:32:30;24.69;118.99
584;HTU21D;27024;54.068;12.116;2023-08-12T15:34:57;24.77;118.99
584;HTU21D;27024;54.068;12.116;2023-08-12T15:37:24;24.89;118.99
584;HTU21D;27024;54.068;12.116;2023-08-12T15:39:51;24.55;118.99